sensor_id;sensor_type;location;lat;lon;timestamp;temperature;humidity
21770;DHT22;11046;49.558;8.674;2023-04-23T00:02:37;12.90;97.40
21770;DHT22;11046;49.558;8.674;2023-04-23T00:05:38;12.90;97.60
21770;DHT22;11046;49.558;8.674;2023-04-23T00:08:41;12.90;97.70
21770;DHT22;11046;49.558;8.674;2023-04-23T00:11:42;12.80;98.00
21770;DHT22;11046;49.558;8.674;2023-04-23T00:14:43;12.80;98.10
21770;DHT22;11046;49.558;8.674;2023-04-23T00:17:43;12.80;98.20
21770;DHT22;11046;49.558;8.674;2023-04-23T00:20:44;12.80;98.30
21770;DHT22;11046;49.558;8.674;2023-04-23T00:23:45;12.70;98.40
21770;DHT22;11046;49.558;8.674;2023-04-23T00:26:46;12.70;98.60
21770;DHT22;11046;49.558;8.674;2023-04-23T00:29:46;12.70;98.70
21770;DHT22;11046;49.558;8.674;2023-04-23T00:32:47;12.70;98.80
21770;DHT22;11046;49.558;8.674;2023-04-23T00:35:48;12.60;98.90
21770;DHT22;11046;49.558;8.674;2023-04-23T00:38:48;12.60;99.00
21770;DHT22;11046;49.558;8.674;2023-04-23T00:41:49;12.60;99.20
21770;DHT22;11046;49.558;8.674;2023-04-23T00:44:50;12.60;99.40
21770;DHT22;11046;49.558;8.674;2023-04-23T00:47:52;12.50;99.60
21770;DHT22;11046;49.558;8.674;2023-04-23T00:51:02;12.40;99.80
21770;DHT22;11046;49.558;8.674;2023-04-23T00:54:03;12.40;99.90
21770;DHT22;11046;49.558;8.674;2023-04-23T00:57:04;12.40;99.90
21770;DHT22;11046;49.558;8.674;2023-04-23T01:00:06;12.40;99.90
21770;DHT22;11046;49.558;8.674;2023-04-23T01:03:07;12.40;99.90
21770;DHT22;11046;49.558;8.674;2023-04-23T01:06:08;12.40;99.90
21770;DHT22;11046;49.558;8.674;2023-04-23T01:09:09;12.40;99.90
21770;DHT22;11046;49.558;8.674;2023-04-23T01:12:10;12.40;99.90
21770;DHT22;11046;49.558;8.674;2023-04-23T01:15:10;12.40;99.90
21770;DHT22;11046;49.558;8.674;2023-04-23T01:18:11;12.40;99.90
21770;DHT22;11046;49.558;8.674;2023-04-23T01:21:14;12.40;99.90
21770;DHT22;11046;49.558;8.674;2023-04-23T01:24:16;12.40;99.90
21770;DHT22;11046;49.558;8.674;2023-04-23T01:27:20;12.30;99.90
21770;DHT22;11046;49.558;8.674;2023-04-23T01:30:29;12.40;99.90
21770;DHT22;11046;49.558;8.674;2023-04-23T01:33:30;12.30;99.90
21770;DHT22;11046;49.558;8.674;2023-04-23T01:36:32;12.30;99.90
21770;DHT22;11046;49.558;8.674;2023-04-23T01:39:33;12.20;99.90
21770;DHT22;11046;49.558;8.674;2023-04-23T01:42:35;12.20;99.90
21770;DHT22;11046;49.558;8.674;2023-04-23T01:45:36;12.20;99.90
21770;DHT22;11046;49.558;8.674;2023-04-23T01:48:37;12.20;99.90
21770;DHT22;11046;49.558;8.674;2023-04-23T01:51:38;12.20;99.90
21770;DHT22;11046;49.558;8.674;2023-04-23T01:54:38;12.20;99.90
21770;DHT22;11046;49.558;8.674;2023-04-23T01:57:47;12.20;99.90
21770;DHT22;11046;49.558;8.674;2023-04-23T02:00:50;12.20;99.90
21770;DHT22;11046;49.558;8.674;2023-04-23T02:03:51;12.20;99.90
21770;DHT22;11046;49.558;8.674;2023-04-23T02:06:54;12.10;99.90
21770;DHT22;11046;49.558;8.674;2023-04-23T02:09:58;12.20;99.90
21770;DHT22;11046;49.558;8.674;2023-04-23T02:13:00;12.10;99.90
21770;DHT22;11046;49.558;8.674;2023-04-23T02:16:01;12.10;99.90
21770;DHT22;11046;49.558;8.674;2023-04-23T02:19:02;12.00;99.90
21770;DHT22;11046;49.558;8.674;2023-04-23T02:22:03;12.00;99.90
21770;DHT22;11046;49.558;8.674;2023-04-23T02:25:05;12.10;99.90
21770;DHT22;11046;49.558;8.674;2023-04-23T02:28:06;12.10;99.90
21770;DHT22;11046;49.558;8.674;2023-04-23T02:31:07;12.10;99.90
21770;DHT22;11046;49.558;8.674;2023-04-23T02:34:11;12.10;99.90
21770;DHT22;11046;49.558;8.674;2023-04-23T02:37:12;12.10;99.90
21770;DHT22;11046;49.558;8.674;2023-04-23T02:40:13;12.00;99.90
21770;DHT22;11046;49.558;8.674;2023-04-23T02:43:13;12.00;99.90
21770;DHT22;11046;49.558;8.674;2023-04-23T02:46:14;12.00;99.90
21770;DHT22;11046;49.558;8.674;2023-04-23T02:49:15;12.00;99.90
21770;DHT22;11046;49.558;8.674;2023-04-23T02:52:18;12.00;99.90
21770;DHT22;11046;49.558;8.674;2023-04-23T02:55:19;12.00;99.90
21770;DHT22;11046;49.558;8.674;2023-04-23T02:58:20;12.00;99.90
21770;DHT22;11046;49.558;8.674;2023-04-23T03:01:23;12.00;99.90
21770;DHT22;11046;49.558;8.674;2023-04-23T03:04:25;12.00;99.90
21770;DHT22;11046;49.558;8.674;2023-04-23T03:07:25;11.90;99.90
21770;DHT22;11046;49.558;8.674;2023-04-23T03:10:26;11.80;99.90
21770;DHT22;11046;49.558;8.674;2023-04-23T03:13:27;11.90;99.90
21770;DHT22;11046;49.558;8.674;2023-04-23T03:16:31;12.00;99.90
21770;DHT22;11046;49.558;8.674;2023-04-23T03:19:32;11.90;99.90
21770;DHT22;11046;49.558;8.674;2023-04-23T03:22:34;11.90;99.90
21770;DHT22;11046;49.558;8.674;2023-04-23T03:25:35;11.90;99.90
21770;DHT22;11046;49.558;8.674;2023-04-23T03:28:37;11.90;99.90
21770;DHT22;11046;49.558;8.674;2023-04-23T03:31:37;11.90;99.90
21770;DHT22;11046;49.558;8.674;2023-04-23T03:34:40;12.00;99.90
21770;DHT22;11046;49.558;8.674;2023-04-23T03:37:44;11.90;99.90
21770;DHT22;11046;49.558;8.674;2023-04-23T03:40:45;11.90;99.90
21770;DHT22;11046;49.558;8.674;2023-04-23T03:43:49;11.90;99.90
21770;DHT22;11046;49.558;8.674;2023-04-23T03:47:00;11.90;99.90
21770;DHT22;11046;49.558;8.674;2023-04-23T03:50:00;11.90;99.90
21770;DHT22;11046;49.558;8.674;2023-04-23T03:53:01;11.90;99.90
21770;DHT22;11046;49.558;8.674;2023-04-23T03:56:22;11.90;99.90
21770;DHT22;11046;49.558;8.674;2023-04-23T03:59:33;11.90;99.90
21770;DHT22;11046;49.558;8.674;2023-04-23T04:02:34;11.90;99.90
21770;DHT22;11046;49.558;8.674;2023-04-23T04:05:35;11.90;99.90
21770;DHT22;11046;49.558;8.674;2023-04-23T04:08:36;11.90;99.90
21770;DHT22;11046;49.558;8.674;2023-04-23T04:11:36;11.90;99.90
21770;DHT22;11046;49.558;8.674;2023-04-23T04:14:37;11.90;99.90
21770;DHT22;11046;49.558;8.674;2023-04-23T04:17:38;11.80;99.90
21770;DHT22;11046;49.558;8.674;2023-04-23T04:20:39;11.80;99.90
21770;DHT22;11046;49.558;8.674;2023-04-23T04:23:45;11.80;99.90
21770;DHT22;11046;49.558;8.674;2023-04-23T04:26:47;11.80;99.90
21770;DHT22;11046;49.558;8.674;2023-04-23T04:29:51;11.70;99.90
21770;DHT22;11046;49.558;8.674;2023-04-23T04:32:52;11.70;99.90
21770;DHT22;11046;49.558;8.674;2023-04-23T04:35:53;11.70;99.90
21770;DHT22;11046;49.558;8.674;2023-04-23T04:38:54;11.70;99.90
21770;DHT22;11046;49.558;8.674;2023-04-23T04:42:03;11.70;99.90
21770;DHT22;11046;49.558;8.674;2023-04-23T04:45:06;11.70;99.90
21770;DHT22;11046;49.558;8.674;2023-04-23T04:48:08;11.70;99.90
21770;DHT22;11046;49.558;8.674;2023-04-23T04:51:09;11.70;99.90
21770;DHT22;11046;49.558;8.674;2023-04-23T04:54:13;11.70;99.90
21770;DHT22;11046;49.558;8.674;2023-04-23T04:57:13;11.60;99.90
21770;DHT22;11046;49.558;8.674;2023-04-23T05:00:23;11.50;99.90
21770;DHT22;11046;49.558;8.674;2023-04-23T05:03:25;11.50;99.90
21770;DHT22;11046;49.558;8.674;2023-04-23T05:06:26;11.50;99.90
21770;DHT22;11046;49.558;8.674;2023-04-23T05:09:30;11.60;99.90
21770;DHT22;11046;49.558;8.674;2023-04-23T05:12:31;11.60;99.90
21770;DHT22;11046;49.558;8.674;2023-04-23T05:15:32;11.60;99.90
21770;DHT22;11046;49.558;8.674;2023-04-23T05:18:35;11.60;99.90
21770;DHT22;11046;49.558;8.674;2023-04-23T05:21:37;11.70;99.90
21770;DHT22;11046;49.558;8.674;2023-04-23T05:24:38;11.80;99.90
21770;DHT22;11046;49.558;8.674;2023-04-23T05:27:41;11.80;99.90
21770;DHT22;11046;49.558;8.674;2023-04-23T05:30:44;11.80;99.90
21770;DHT22;11046;49.558;8.674;2023-04-23T05:33:45;11.80;99.90
21770;DHT22;11046;49.558;8.674;2023-04-23T05:36:46;11.80;99.90
21770;DHT22;11046;49.558;8.674;2023-04-23T05:39:47;11.80;99.90
21770;DHT22;11046;49.558;8.674;2023-04-23T05:42:48;11.80;99.90
21770;DHT22;11046;49.558;8.674;2023-04-23T05:45:49;11.90;99.90
21770;DHT22;11046;49.558;8.674;2023-04-23T05:48:49;12.00;99.90
21770;DHT22;11046;49.558;8.674;2023-04-23T05:51:55;12.00;99.90
21770;DHT22;11046;49.558;8.674;2023-04-23T05:54:58;11.90;99.90
21770;DHT22;11046;49.558;8.674;2023-04-23T05:57:58;12.00;99.90
21770;DHT22;11046;49.558;8.674;2023-04-23T06:01:02;12.00;99.90
21770;DHT22;11046;49.558;8.674;2023-04-23T06:04:02;12.10;99.90
21770;DHT22;11046;49.558;8.674;2023-04-23T06:07:03;12.20;99.90
21770;DHT22;11046;49.558;8.674;2023-04-23T06:10:04;12.30;99.90
21770;DHT22;11046;49.558;8.674;2023-04-23T06:13:06;12.40;99.90
21770;DHT22;11046;49.558;8.674;2023-04-23T06:16:06;12.60;99.90
21770;DHT22;11046;49.558;8.674;2023-04-23T06:19:08;12.60;99.90
21770;DHT22;11046;49.558;8.674;2023-04-23T06:22:11;12.80;99.90
21770;DHT22;11046;49.558;8.674;2023-04-23T06:25:12;12.90;99.90
21770;DHT22;11046;49.558;8.674;2023-04-23T06:28:13;13.00;99.90
21770;DHT22;11046;49.558;8.674;2023-04-23T06:31:32;13.10;99.90
21770;DHT22;11046;49.558;8.674;2023-04-23T06:34:33;13.20;99.90
21770;DHT22;11046;49.558;8.674;2023-04-23T06:37:33;13.30;99.90
21770;DHT22;11046;49.558;8.674;2023-04-23T06:40:34;13.30;99.90
21770;DHT22;11046;49.558;8.674;2023-04-23T06:43:37;13.40;99.90
21770;DHT22;11046;49.558;8.674;2023-04-23T06:47:13;13.40;99.90
21770;DHT22;11046;49.558;8.674;2023-04-23T06:50:14;13.40;99.90
21770;DHT22;11046;49.558;8.674;2023-04-23T06:53:18;13.30;99.90
21770;DHT22;11046;49.558;8.674;2023-04-23T06:56:19;13.30;99.90
21770;DHT22;11046;49.558;8.674;2023-04-23T06:59:21;13.70;99.90
21770;DHT22;11046;49.558;8.674;2023-04-23T07:02:26;14.20;99.90
21770;DHT22;11046;49.558;8.674;2023-04-23T07:05:30;14.70;99.90
21770;DHT22;11046;49.558;8.674;2023-04-23T07:08:33;15.00;99.90
21770;DHT22;11046;49.558;8.674;2023-04-23T07:11:33;15.30;99.90
21770;DHT22;11046;49.558;8.674;2023-04-23T07:14:39;15.70;99.90
21770;DHT22;11046;49.558;8.674;2023-04-23T07:17:39;16.20;99.90
21770;DHT22;11046;49.558;8.674;2023-04-23T07:20:43;16.60;99.30
21770;DHT22;11046;49.558;8.674;2023-04-23T07:23:43;16.80;98.50
21770;DHT22;11046;49.558;8.674;2023-04-23T07:26:45;17.00;98.00
21770;DHT22;11046;49.558;8.674;2023-04-23T07:29:45;17.10;97.60
21770;DHT22;11046;49.558;8.674;2023-04-23T07:32:49;17.30;97.40
21770;DHT22;11046;49.558;8.674;2023-04-23T07:35:50;17.40;96.80
21770;DHT22;11046;49.558;8.674;2023-04-23T07:38:50;17.70;96.40
21770;DHT22;11046;49.558;8.674;2023-04-23T07:41:51;17.90;96.30
21770;DHT22;11046;49.558;8.674;2023-04-23T07:44:52;18.20;95.80
21770;DHT22;11046;49.558;8.674;2023-04-23T07:47:53;18.60;95.50
21770;DHT22;11046;49.558;8.674;2023-04-23T07:50:53;18.70;94.80
21770;DHT22;11046;49.558;8.674;2023-04-23T07:53:57;18.70;94.70
21770;DHT22;11046;49.558;8.674;2023-04-23T07:56:58;18.70;94.30
21770;DHT22;11046;49.558;8.674;2023-04-23T07:59:59;18.70;93.90
21770;DHT22;11046;49.558;8.674;2023-04-23T08:03:03;18.60;93.90
21770;DHT22;11046;49.558;8.674;2023-04-23T08:06:03;18.80;93.70
21770;DHT22;11046;49.558;8.674;2023-04-23T08:09:04;18.90;93.70
21770;DHT22;11046;49.558;8.674;2023-04-23T08:12:05;19.10;93.90
21770;DHT22;11046;49.558;8.674;2023-04-23T08:15:06;19.30;93.30
21770;DHT22;11046;49.558;8.674;2023-04-23T08:18:12;19.00;92.70
21770;DHT22;11046;49.558;8.674;2023-04-23T08:21:13;18.60;92.80
21770;DHT22;11046;49.558;8.674;2023-04-23T08:24:14;18.10;93.10
21770;DHT22;11046;49.558;8.674;2023-04-23T08:27:15;17.90;93.30
21770;DHT22;11046;49.558;8.674;2023-04-23T08:30:22;18.20;93.50
21770;DHT22;11046;49.558;8.674;2023-04-23T08:33:23;18.80;93.00
21770;DHT22;11046;49.558;8.674;2023-04-23T08:36:24;19.20;92.40
21770;DHT22;11046;49.558;8.674;2023-04-23T08:39:25;19.70;91.80
21770;DHT22;11046;49.558;8.674;2023-04-23T08:42:44;19.90;91.30
21770;DHT22;11046;49.558;8.674;2023-04-23T08:45:48;20.30;90.30
21770;DHT22;11046;49.558;8.674;2023-04-23T08:48:54;20.30;90.00
21770;DHT22;11046;49.558;8.674;2023-04-23T08:51:56;19.90;89.70
21770;DHT22;11046;49.558;8.674;2023-04-23T08:55:04;19.40;90.10
21770;DHT22;11046;49.558;8.674;2023-04-23T08:58:09;19.10;90.60
21770;DHT22;11046;49.558;8.674;2023-04-23T09:01:10;19.40;90.70
21770;DHT22;11046;49.558;8.674;2023-04-23T09:04:12;19.90;90.70
21770;DHT22;11046;49.558;8.674;2023-04-23T09:07:17;20.00;89.90
21770;DHT22;11046;49.558;8.674;2023-04-23T09:10:18;20.20;88.40
21770;DHT22;11046;49.558;8.674;2023-04-23T09:13:21;20.00;87.80
21770;DHT22;11046;49.558;8.674;2023-04-23T09:16:22;20.10;87.80
21770;DHT22;11046;49.558;8.674;2023-04-23T09:19:25;20.40;87.30
21770;DHT22;11046;49.558;8.674;2023-04-23T09:22:49;20.90;85.70
21770;DHT22;11046;49.558;8.674;2023-04-23T09:25:55;21.10;84.10
21770;DHT22;11046;49.558;8.674;2023-04-23T09:28:56;21.40;83.60
21770;DHT22;11046;49.558;8.674;2023-04-23T09:32:06;21.50;82.00
21770;DHT22;11046;49.558;8.674;2023-04-23T09:35:12;21.80;80.30
21770;DHT22;11046;49.558;8.674;2023-04-23T09:38:14;21.50;79.70
21770;DHT22;11046;49.558;8.674;2023-04-23T09:41:26;21.50;80.30
21770;DHT22;11046;49.558;8.674;2023-04-23T09:44:31;21.80;79.80
21770;DHT22;11046;49.558;8.674;2023-04-23T09:47:39;22.00;79.50
21770;DHT22;11046;49.558;8.674;2023-04-23T09:50:40;22.00;78.70
21770;DHT22;11046;49.558;8.674;2023-04-23T09:53:42;21.90;79.00
21770;DHT22;11046;49.558;8.674;2023-04-23T09:56:48;21.60;77.80
21770;DHT22;11046;49.558;8.674;2023-04-23T09:59:48;21.20;78.20
21770;DHT22;11046;49.558;8.674;2023-04-23T10:02:50;21.10;78.80
21770;DHT22;11046;49.558;8.674;2023-04-23T10:05:53;21.20;79.00
21770;DHT22;11046;49.558;8.674;2023-04-23T10:08:56;21.20;78.50
21770;DHT22;11046;49.558;8.674;2023-04-23T10:11:59;21.10;78.00
21770;DHT22;11046;49.558;8.674;2023-04-23T10:15:03;21.00;77.70
21770;DHT22;11046;49.558;8.674;2023-04-23T10:18:06;20.90;77.80
21770;DHT22;11046;49.558;8.674;2023-04-23T10:21:07;20.70;77.50
21770;DHT22;11046;49.558;8.674;2023-04-23T10:24:09;20.60;78.00
21770;DHT22;11046;49.558;8.674;2023-04-23T10:27:12;20.80;78.20
21770;DHT22;11046;49.558;8.674;2023-04-23T10:30:14;20.80;78.40
21770;DHT22;11046;49.558;8.674;2023-04-23T10:33:15;21.00;78.00
21770;DHT22;11046;49.558;8.674;2023-04-23T10:36:17;21.10;77.60
21770;DHT22;11046;49.558;8.674;2023-04-23T10:39:22;21.30;77.40
21770;DHT22;11046;49.558;8.674;2023-04-23T10:42:23;21.40;76.60
21770;DHT22;11046;49.558;8.674;2023-04-23T10:45:24;21.60;76.40
21770;DHT22;11046;49.558;8.674;2023-04-23T10:48:35;21.80;75.70
21770;DHT22;11046;49.558;8.674;2023-04-23T10:52:11;21.70;74.70
21770;DHT22;11046;49.558;8.674;2023-04-23T10:55:16;21.50;74.30
21770;DHT22;11046;49.558;8.674;2023-04-23T10:58:18;21.50;74.30
21770;DHT22;11046;49.558;8.674;2023-04-23T11:01:31;21.50;74.40
21770;DHT22;11046;49.558;8.674;2023-04-23T11:04:33;21.80;74.10
21770;DHT22;11046;49.558;8.674;2023-04-23T11:07:34;22.10;73.90
21770;DHT22;11046;49.558;8.674;2023-04-23T11:10:53;22.70;72.70
21770;DHT22;11046;49.558;8.674;2023-04-23T11:13:54;23.10;71.00
21770;DHT22;11046;49.558;8.674;2023-04-23T11:16:54;22.80;70.80
21770;DHT22;11046;49.558;8.674;2023-04-23T11:23:28;22.60;69.10
21770;DHT22;11046;49.558;8.674;2023-04-23T11:26:29;22.80;69.10
21770;DHT22;11046;49.558;8.674;2023-04-23T11:29:30;23.20;68.50
21770;DHT22;11046;49.558;8.674;2023-04-23T11:32:31;23.20;68.50
21770;DHT22;11046;49.558;8.674;2023-04-23T11:35:34;23.00;68.20
21770;DHT22;11046;49.558;8.674;2023-04-23T11:38:40;22.90;68.20
21770;DHT22;11046;49.558;8.674;2023-04-23T11:41:41;22.80;67.30
21770;DHT22;11046;49.558;8.674;2023-04-23T11:44:44;22.50;66.90
21770;DHT22;11046;49.558;8.674;2023-04-23T11:47:45;22.20;67.30
21770;DHT22;11046;49.558;8.674;2023-04-23T11:50:46;22.30;67.30
21770;DHT22;11046;49.558;8.674;2023-04-23T11:53:47;22.00;66.70
21770;DHT22;11046;49.558;8.674;2023-04-23T11:56:47;22.00;67.10
21770;DHT22;11046;49.558;8.674;2023-04-23T11:59:48;21.90;66.50
21770;DHT22;11046;49.558;8.674;2023-04-23T12:02:53;21.90;67.00
21770;DHT22;11046;49.558;8.674;2023-04-23T12:05:54;22.20;66.20
21770;DHT22;11046;49.558;8.674;2023-04-23T12:08:55;22.60;65.50
21770;DHT22;11046;49.558;8.674;2023-04-23T12:11:56;23.00;64.50
21770;DHT22;11046;49.558;8.674;2023-04-23T12:15:04;23.40;64.10
21770;DHT22;11046;49.558;8.674;2023-04-23T12:18:08;23.60;61.40
21770;DHT22;11046;49.558;8.674;2023-04-23T12:21:12;23.40;60.00
21770;DHT22;11046;49.558;8.674;2023-04-23T12:24:13;23.40;59.90
21770;DHT22;11046;49.558;8.674;2023-04-23T12:27:15;23.30;60.10
21770;DHT22;11046;49.558;8.674;2023-04-23T12:30:19;23.30;59.90
21770;DHT22;11046;49.558;8.674;2023-04-23T12:33:20;23.20;59.70
21770;DHT22;11046;49.558;8.674;2023-04-23T12:36:28;23.20;59.60
21770;DHT22;11046;49.558;8.674;2023-04-23T12:39:32;23.40;58.30
21770;DHT22;11046;49.558;8.674;2023-04-23T12:42:36;23.40;58.00
21770;DHT22;11046;49.558;8.674;2023-04-23T12:45:36;23.60;57.60
21770;DHT22;11046;49.558;8.674;2023-04-23T12:48:37;23.40;56.90
21770;DHT22;11046;49.558;8.674;2023-04-23T12:51:38;23.30;57.10
21770;DHT22;11046;49.558;8.674;2023-04-23T12:54:39;23.40;56.70
21770;DHT22;11046;49.558;8.674;2023-04-23T12:57:39;23.40;57.00
21770;DHT22;11046;49.558;8.674;2023-04-23T13:00:40;23.50;57.40
21770;DHT22;11046;49.558;8.674;2023-04-23T13:03:40;23.50;57.80
21770;DHT22;11046;49.558;8.674;2023-04-23T13:06:42;23.60;56.80
21770;DHT22;11046;49.558;8.674;2023-04-23T13:09:42;23.60;56.30
21770;DHT22;11046;49.558;8.674;2023-04-23T13:12:43;23.70;56.10
21770;DHT22;11046;49.558;8.674;2023-04-23T13:15:43;23.70;55.90
21770;DHT22;11046;49.558;8.674;2023-04-23T13:18:44;23.60;55.80
21770;DHT22;11046;49.558;8.674;2023-04-23T13:21:45;23.60;55.80
21770;DHT22;11046;49.558;8.674;2023-04-23T13:24:45;23.60;55.70
21770;DHT22;11046;49.558;8.674;2023-04-23T13:27:46;23.80;55.40
21770;DHT22;11046;49.558;8.674;2023-04-23T13:30:46;23.70;55.00
21770;DHT22;11046;49.558;8.674;2023-04-23T13:33:47;23.80;54.60
21770;DHT22;11046;49.558;8.674;2023-04-23T13:36:47;24.10;54.50
21770;DHT22;11046;49.558;8.674;2023-04-23T13:39:48;24.20;54.20
21770;DHT22;11046;49.558;8.674;2023-04-23T13:42:49;24.10;54.00
21770;DHT22;11046;49.558;8.674;2023-04-23T13:45:51;23.80;53.60
21770;DHT22;11046;49.558;8.674;2023-04-23T13:48:52;23.50;54.00
21770;DHT22;11046;49.558;8.674;2023-04-23T13:51:53;23.40;53.90
21770;DHT22;11046;49.558;8.674;2023-04-23T13:54:58;23.10;53.70
21770;DHT22;11046;49.558;8.674;2023-04-23T13:58:06;22.90;53.70
21770;DHT22;11046;49.558;8.674;2023-04-23T14:01:06;22.80;54.00
21770;DHT22;11046;49.558;8.674;2023-04-23T14:04:07;22.90;54.80
21770;DHT22;11046;49.558;8.674;2023-04-23T14:07:08;23.20;54.70
21770;DHT22;11046;49.558;8.674;2023-04-23T14:10:10;23.40;54.00
21770;DHT22;11046;49.558;8.674;2023-04-23T14:13:10;23.30;53.50
21770;DHT22;11046;49.558;8.674;2023-04-23T14:16:11;23.30;53.90
21770;DHT22;11046;49.558;8.674;2023-04-23T14:19:11;23.20;53.40
21770;DHT22;11046;49.558;8.674;2023-04-23T14:22:12;23.10;53.70
21770;DHT22;11046;49.558;8.674;2023-04-23T14:25:14;23.10;53.60
21770;DHT22;11046;49.558;8.674;2023-04-23T14:28:28;23.20;53.20
21770;DHT22;11046;49.558;8.674;2023-04-23T14:31:32;23.20;52.70
21770;DHT22;11046;49.558;8.674;2023-04-23T14:34:33;23.10;52.60
21770;DHT22;11046;49.558;8.674;2023-04-23T14:37:36;23.10;52.60
21770;DHT22;11046;49.558;8.674;2023-04-23T14:40:37;23.00;52.60
21770;DHT22;11046;49.558;8.674;2023-04-23T14:43:37;22.70;52.60
21770;DHT22;11046;49.558;8.674;2023-04-23T14:46:39;22.60;53.20
21770;DHT22;11046;49.558;8.674;2023-04-23T14:49:39;22.60;53.20
21770;DHT22;11046;49.558;8.674;2023-04-23T14:52:41;22.60;53.60
21770;DHT22;11046;49.558;8.674;2023-04-23T14:55:43;22.60;53.80
21770;DHT22;11046;49.558;8.674;2023-04-23T14:58:43;22.50;53.80
21770;DHT22;11046;49.558;8.674;2023-04-23T15:01:44;22.50;53.70
21770;DHT22;11046;49.558;8.674;2023-04-23T15:04:45;22.40;53.50
21770;DHT22;11046;49.558;8.674;2023-04-23T15:07:45;22.30;53.40
21770;DHT22;11046;49.558;8.674;2023-04-23T15:10:46;22.30;53.60
21770;DHT22;11046;49.558;8.674;2023-04-23T15:16:57;22.20;53.40
21770;DHT22;11046;49.558;8.674;2023-04-23T15:19:57;22.20;53.80
21770;DHT22;11046;49.558;8.674;2023-04-23T15:22:59;22.10;53.50
21770;DHT22;11046;49.558;8.674;2023-04-23T15:26:00;21.90;53.50
21770;DHT22;11046;49.558;8.674;2023-04-23T15:29:00;21.80;53.60
21770;DHT22;11046;49.558;8.674;2023-04-23T15:32:02;21.70;54.00
21770;DHT22;11046;49.558;8.674;2023-04-23T15:35:03;21.70;54.30
21770;DHT22;11046;49.558;8.674;2023-04-23T15:38:03;21.70;54.60
21770;DHT22;11046;49.558;8.674;2023-04-23T15:41:04;21.90;54.70
21770;DHT22;11046;49.558;8.674;2023-04-23T15:44:07;21.80;55.00
21770;DHT22;11046;49.558;8.674;2023-04-23T15:47:10;21.90;55.00
21770;DHT22;11046;49.558;8.674;2023-04-23T15:50:11;21.90;55.00
21770;DHT22;11046;49.558;8.674;2023-04-23T15:53:12;21.90;55.30
21770;DHT22;11046;49.558;8.674;2023-04-23T15:56:13;21.70;55.50
21770;DHT22;11046;49.558;8.674;2023-04-23T15:59:13;21.60;55.80
21770;DHT22;11046;49.558;8.674;2023-04-23T16:02:14;21.70;55.50
21770;DHT22;11046;49.558;8.674;2023-04-23T16:05:15;21.60;55.50
21770;DHT22;11046;49.558;8.674;2023-04-23T16:08:15;21.40;55.60
21770;DHT22;11046;49.558;8.674;2023-04-23T16:11:16;21.30;55.90
21770;DHT22;11046;49.558;8.674;2023-04-23T16:14:17;21.20;56.00
21770;DHT22;11046;49.558;8.674;2023-04-23T16:17:18;20.90;55.90
21770;DHT22;11046;49.558;8.674;2023-04-23T16:20:19;20.60;56.30
21770;DHT22;11046;49.558;8.674;2023-04-23T16:23:19;20.30;57.10
21770;DHT22;11046;49.558;8.674;2023-04-23T16:26:20;19.90;58.20
21770;DHT22;11046;49.558;8.674;2023-04-23T16:29:20;19.30;60.30
21770;DHT22;11046;49.558;8.674;2023-04-23T16:32:21;18.70;63.00
21770;DHT22;11046;49.558;8.674;2023-04-23T16:35:22;18.20;65.00
21770;DHT22;11046;49.558;8.674;2023-04-23T16:38:22;17.70;66.90
21770;DHT22;11046;49.558;8.674;2023-04-23T16:41:23;17.20;68.80
21770;DHT22;11046;49.558;8.674;2023-04-23T16:44:23;16.80;71.10
21770;DHT22;11046;49.558;8.674;2023-04-23T16:47:24;16.60;72.00
21770;DHT22;11046;49.558;8.674;2023-04-23T16:50:25;16.50;73.60
21770;DHT22;11046;49.558;8.674;2023-04-23T16:53:26;16.30;74.30
21770;DHT22;11046;49.558;8.674;2023-04-23T16:56:26;16.20;75.70
21770;DHT22;11046;49.558;8.674;2023-04-23T16:59:27;16.00;76.90
21770;DHT22;11046;49.558;8.674;2023-04-23T17:02:28;15.70;78.20
21770;DHT22;11046;49.558;8.674;2023-04-23T17:05:31;15.60;78.90
21770;DHT22;11046;49.558;8.674;2023-04-23T17:08:33;15.60;79.60
21770;DHT22;11046;49.558;8.674;2023-04-23T17:11:36;15.50;79.70
21770;DHT22;11046;49.558;8.674;2023-04-23T17:14:36;15.50;80.50
21770;DHT22;11046;49.558;8.674;2023-04-23T17:17:37;15.40;80.80
21770;DHT22;11046;49.558;8.674;2023-04-23T17:20:37;15.40;81.40
21770;DHT22;11046;49.558;8.674;2023-04-23T17:23:38;15.30;81.90
21770;DHT22;11046;49.558;8.674;2023-04-23T17:26:39;15.20;82.40
21770;DHT22;11046;49.558;8.674;2023-04-23T17:29:39;15.10;82.90
21770;DHT22;11046;49.558;8.674;2023-04-23T17:32:40;15.00;83.70
21770;DHT22;11046;49.558;8.674;2023-04-23T17:35:40;14.90;84.20
21770;DHT22;11046;49.558;8.674;2023-04-23T17:38:41;14.90;84.60
21770;DHT22;11046;49.558;8.674;2023-04-23T17:41:42;14.90;85.00
21770;DHT22;11046;49.558;8.674;2023-04-23T17:44:42;14.90;85.40
21770;DHT22;11046;49.558;8.674;2023-04-23T17:47:43;14.90;85.60
21770;DHT22;11046;49.558;8.674;2023-04-23T17:50:44;15.00;85.50
21770;DHT22;11046;49.558;8.674;2023-04-23T17:53:46;14.90;85.80
21770;DHT22;11046;49.558;8.674;2023-04-23T17:56:47;14.90;86.20
21770;DHT22;11046;49.558;8.674;2023-04-23T17:59:48;14.80;86.40
21770;DHT22;11046;49.558;8.674;2023-04-23T18:02:48;14.80;87.20
21770;DHT22;11046;49.558;8.674;2023-04-23T18:05:49;14.70;87.50
21770;DHT22;11046;49.558;8.674;2023-04-23T18:08:50;14.60;88.10
21770;DHT22;11046;49.558;8.674;2023-04-23T18:11:50;14.60;88.50
21770;DHT22;11046;49.558;8.674;2023-04-23T18:14:51;14.40;89.00
21770;DHT22;11046;49.558;8.674;2023-04-23T18:17:51;14.40;89.60
21770;DHT22;11046;49.558;8.674;2023-04-23T18:20:54;14.30;89.80
21770;DHT22;11046;49.558;8.674;2023-04-23T18:23:55;14.10;90.10
21770;DHT22;11046;49.558;8.674;2023-04-23T18:26:56;14.10;90.50
21770;DHT22;11046;49.558;8.674;2023-04-23T18:29:57;14.00;90.60
21770;DHT22;11046;49.558;8.674;2023-04-23T18:36:24;13.90;91.30
21770;DHT22;11046;49.558;8.674;2023-04-23T18:39:28;13.70;91.40
21770;DHT22;11046;49.558;8.674;2023-04-23T18:42:29;13.70;91.30
21770;DHT22;11046;49.558;8.674;2023-04-23T18:45:29;13.70;91.50
21770;DHT22;11046;49.558;8.674;2023-04-23T18:51:44;13.50;92.00
21770;DHT22;11046;49.558;8.674;2023-04-23T18:54:49;13.40;92.20
21770;DHT22;11046;49.558;8.674;2023-04-23T18:57:50;13.40;92.30
21770;DHT22;11046;49.558;8.674;2023-04-23T19:00:50;13.40;92.50
21770;DHT22;11046;49.558;8.674;2023-04-23T19:03:52;13.40;92.80
21770;DHT22;11046;49.558;8.674;2023-04-23T19:06:52;13.30;92.70
21770;DHT22;11046;49.558;8.674;2023-04-23T19:09:53;13.40;92.90
21770;DHT22;11046;49.558;8.674;2023-04-23T19:12:53;13.40;92.80
21770;DHT22;11046;49.558;8.674;2023-04-23T19:15:54;13.40;92.90
21770;DHT22;11046;49.558;8.674;2023-04-23T19:18:55;13.40;92.90
21770;DHT22;11046;49.558;8.674;2023-04-23T19:21:55;13.30;92.90
21770;DHT22;11046;49.558;8.674;2023-04-23T19:24:56;13.20;93.20